Niles, Mississippi
Current Conditions -  °F | °C
As of 11:55 AM on Thursday 30 Oct 2014 (Local Time) from KRNV Reporting Station
Clear Clear  
Wind Chill: 66°   Ceiling: Unl
Heat Index: 66°   Visibility: 10mi
Dew Point: 46°   Wind: 0mph
Humidity: 48%   Direction: NA
Pressure: 30.15"   Gusts: NA
Location:  33.8277°N, 90.9559°W
Report Text: KRNV 301655Z AUTO 00000KT 10SM CLR 19/08 A3015 RMK AO2 T01900078
Loading
Personal Weather Stations






























Interactive Weather Map New forecast layout! Learn more

10-Day Weather Forecast

Advertisements
Track Severe Weather on mobile